createdAt,value
2023-03-12T00:03:07.740Z,3.60
2023-03-12T00:07:09.320Z,2.70
2023-03-12T00:11:12.494Z,2.40
2023-03-12T00:15:15.355Z,3.00
2023-03-12T00:19:16.812Z,2.50
2023-03-12T00:23:18.262Z,2.10
2023-03-12T00:27:19.881Z,2.30
2023-03-12T00:31:26.477Z,2.20
2023-03-12T00:35:27.922Z,2.40
2023-03-12T00:39:29.587Z,2.23
2023-03-12T00:43:31.475Z,2.60
2023-03-12T00:47:34.576Z,2.30
2023-03-12T00:51:36.006Z,2.40
2023-03-12T00:55:37.461Z,2.63
2023-03-12T00:59:38.897Z,2.70
2023-03-12T01:03:42.640Z,2.60
2023-03-12T01:07:44.119Z,2.53
2023-03-12T01:11:45.923Z,2.20
2023-03-12T01:15:47.555Z,2.30
2023-03-12T01:19:50.578Z,3.00
2023-03-12T01:23:53.093Z,2.30
2023-03-12T01:27:54.543Z,2.40
2023-03-12T01:31:56.252Z,2.70
2023-03-12T01:35:59.720Z,3.40
2023-03-12T01:40:01.742Z,2.33
2023-03-12T01:44:04.511Z,2.50
2023-03-12T01:48:05.957Z,2.27
2023-03-12T01:52:12.548Z,2.30
2023-03-12T01:56:17.639Z,1.93
2023-03-12T02:00:22.440Z,2.20
2023-03-12T02:04:25.948Z,1.93
2023-03-12T02:08:29.436Z,2.07
2023-03-12T02:12:31.329Z,1.80
2023-03-12T02:16:33.436Z,2.13
2023-03-12T02:20:39.687Z,2.30
2023-03-12T02:24:48.240Z,2.67
2023-03-12T02:28:51.764Z,2.53
2023-03-12T02:32:54.645Z,2.77
2023-03-12T02:36:56.229Z,2.53
2023-03-12T02:41:00.241Z,2.70
2023-03-12T02:45:05.690Z,2.53
2023-03-12T02:49:08.396Z,2.90
2023-03-12T02:53:09.846Z,2.73
2023-03-12T02:57:11.833Z,2.83
2023-03-12T03:01:15.088Z,3.00
2023-03-12T03:05:17.060Z,2.67
2023-03-12T03:09:18.847Z,2.17
2023-03-12T03:13:20.470Z,2.80
2023-03-12T03:17:23.747Z,2.47
2023-03-12T03:21:25.333Z,2.57
2023-03-12T03:25:27.142Z,2.43
2023-03-12T03:29:28.795Z,2.37
2023-03-12T03:33:34.982Z,2.30
2023-03-12T03:37:36.687Z,2.43
2023-03-12T03:41:38.527Z,2.30
2023-03-12T03:45:41.693Z,1.90
2023-03-12T03:49:44.668Z,2.00
2023-03-12T03:53:47.712Z,2.03
2023-03-12T03:57:49.473Z,1.87
2023-03-12T04:01:51.141Z,1.90
2023-03-12T04:05:56.083Z,1.67
2023-03-12T04:09:58.824Z,1.90
2023-03-12T04:14:00.394Z,2.13
2023-03-12T04:18:02.054Z,2.10
2023-03-12T04:22:08.226Z,1.93
2023-03-12T04:26:10.233Z,1.87
2023-03-12T04:30:12.640Z,1.80
2023-03-12T04:34:14.664Z,2.10
2023-03-12T04:38:17.859Z,2.10
2023-03-12T04:42:19.451Z,2.40
2023-03-12T04:46:21.017Z,2.43
2023-03-12T04:50:22.760Z,2.50
2023-03-12T04:54:25.746Z,1.90
2023-03-12T04:58:27.435Z,2.33
2023-03-12T05:02:28.862Z,2.63
2023-03-12T05:06:30.694Z,1.90
2023-03-12T05:10:33.493Z,2.33
2023-03-12T05:14:34.955Z,2.40
2023-03-12T05:18:36.984Z,2.63
2023-03-12T05:22:38.913Z,2.50
2023-03-12T05:26:43.122Z,2.63
2023-03-12T05:30:44.677Z,2.77
2023-03-12T05:34:47.575Z,2.50
2023-03-12T05:38:49.033Z,2.50
2023-03-12T05:42:53.154Z,2.53
2023-03-12T05:46:58.717Z,2.37
2023-03-12T05:51:00.701Z,2.07
2023-03-12T05:55:02.123Z,2.13
2023-03-12T05:59:06.093Z,2.30
2023-03-12T06:03:08.407Z,2.37
2023-03-12T06:07:10.128Z,2.53
2023-03-12T06:11:12.479Z,3.03
2023-03-12T06:15:15.784Z,2.73
2023-03-12T06:19:17.238Z,2.70
2023-03-12T06:23:21.543Z,2.13
2023-03-12T06:27:23.978Z,2.60
2023-03-12T06:31:27.082Z,2.70
2023-03-12T06:35:28.647Z,2.80
2023-03-12T06:39:30.306Z,2.63
2023-03-12T06:43:33.383Z,2.60
2023-03-12T06:47:36.416Z,3.03
2023-03-12T06:51:39.374Z,3.17
2023-03-12T06:55:40.865Z,3.60
2023-03-12T06:59:42.660Z,4.10
2023-03-12T07:03:45.435Z,4.20
2023-03-12T07:07:49.633Z,4.00
2023-03-12T07:11:51.275Z,4.43
2023-03-12T07:15:53.995Z,3.53
2023-03-12T07:19:57.307Z,2.83
2023-03-12T07:23:59.075Z,3.07
2023-03-12T07:28:01.702Z,4.47
2023-03-12T07:32:03.892Z,3.07
2023-03-12T07:36:08.801Z,3.10
2023-03-12T07:40:12.072Z,3.10
2023-03-12T07:44:15.960Z,2.90
2023-03-12T07:48:18.055Z,2.20
2023-03-12T07:52:22.390Z,2.60
2023-03-12T07:56:24.214Z,3.20
2023-03-12T08:00:26.223Z,3.27
2023-03-12T08:04:27.748Z,2.90
2023-03-12T08:08:31.773Z,3.13
2023-03-12T08:12:34.393Z,2.73
2023-03-12T08:16:36.032Z,2.80
2023-03-12T08:20:37.425Z,3.43
2023-03-12T08:24:40.830Z,3.00
2023-03-12T08:28:42.402Z,3.00
2023-03-12T08:32:44.384Z,3.20
2023-03-12T08:36:46.539Z,3.07
2023-03-12T08:41:00.631Z,3.60
2023-03-12T08:45:03.151Z,3.63
2023-03-12T08:49:04.540Z,3.50
2023-03-12T08:53:06.247Z,4.00
2023-03-12T08:57:09.549Z,3.77
2023-03-12T09:01:13.429Z,4.10
2023-03-12T09:05:15.160Z,4.33
2023-03-12T09:09:16.566Z,4.30
2023-03-12T09:13:19.319Z,4.30
2023-03-12T09:17:20.741Z,4.87
2023-03-12T09:21:22.319Z,4.53
2023-03-12T09:25:23.834Z,4.20
2023-03-12T09:29:28.296Z,4.10
2023-03-12T09:33:29.945Z,3.97
2023-03-12T09:37:31.446Z,4.07
2023-03-12T09:41:36.522Z,4.27
2023-03-12T09:45:45.230Z,3.90
2023-03-12T09:49:51.521Z,3.67
2023-03-12T09:53:55.735Z,3.80
2023-03-12T09:57:57.209Z,3.90
2023-03-12T10:02:06.141Z,3.33
2023-03-12T10:06:13.595Z,3.50
2023-03-12T10:10:36.646Z,3.00
2023-03-12T10:14:50.687Z,3.20
2023-03-12T10:19:12.347Z,5.43
2023-03-12T10:23:28.115Z,6.63
2023-03-12T10:27:34.848Z,6.37
2023-03-12T10:31:43.929Z,2.90
2023-03-12T10:35:47.570Z,3.10
2023-03-12T10:39:49.959Z,2.80
2023-03-12T10:43:51.983Z,3.00
2023-03-12T10:47:57.613Z,3.73
2023-03-12T10:52:03.756Z,3.90
2023-03-12T10:56:08.295Z,5.13
2023-03-12T11:00:17.871Z,5.00
2023-03-12T11:04:24.913Z,5.70
2023-03-12T11:08:29.837Z,5.60
2023-03-12T11:12:31.356Z,6.53
2023-03-12T11:16:33.106Z,6.83
2023-03-12T11:20:35.444Z,7.07
2023-03-12T11:24:55.511Z,7.07
2023-03-12T11:29:02.921Z,6.80
2023-03-12T11:33:04.854Z,6.70
2023-03-12T11:37:13.765Z,6.70
2023-03-12T11:41:29.928Z,6.70
2023-03-12T11:45:43.344Z,5.90
2023-03-12T11:50:00.730Z,5.57
2023-03-12T11:54:18.188Z,6.13
2023-03-12T11:58:54.786Z,6.07
2023-03-12T12:03:39.558Z,6.10
2023-03-12T12:07:53.680Z,6.03
2023-03-12T12:12:09.966Z,6.43
2023-03-12T12:16:24.380Z,5.97
2023-03-12T12:20:38.445Z,4.80
2023-03-12T12:24:55.214Z,4.23
2023-03-12T12:29:13.710Z,4.50
2023-03-12T12:33:29.636Z,3.90
2023-03-12T12:37:48.456Z,3.90
2023-03-12T12:41:53.082Z,3.57
2023-03-12T12:45:59.129Z,3.60
2023-03-12T12:50:03.600Z,3.73
2023-03-12T12:54:12.892Z,3.67
2023-03-12T12:58:21.783Z,3.43
2023-03-12T13:02:27.766Z,3.53
2023-03-12T13:06:55.075Z,3.37
2023-03-12T13:11:02.535Z,3.47
2023-03-12T13:15:36.039Z,3.40
2023-03-12T13:19:43.198Z,3.60
2023-03-12T13:23:54.825Z,4.17
2023-03-12T13:28:01.222Z,3.50
2023-03-12T13:32:03.564Z,3.80
2023-03-12T13:36:11.805Z,3.37
2023-03-12T13:40:36.404Z,3.93
2023-03-12T13:44:39.310Z,3.70
2023-03-12T13:48:45.312Z,3.57
2023-03-12T13:52:49.353Z,3.27
2023-03-12T13:56:58.791Z,3.53
2023-03-12T14:01:02.349Z,3.80
2023-03-12T14:05:07.792Z,3.97
2023-03-12T14:09:19.903Z,3.83
2023-03-12T14:13:45.126Z,3.07
2023-03-12T14:17:58.246Z,3.50
2023-03-12T14:22:02.684Z,4.20
2023-03-12T14:26:05.302Z,3.63
2023-03-12T14:30:13.084Z,3.93
2023-03-12T14:34:18.026Z,3.70
2023-03-12T14:38:25.301Z,3.77
2023-03-12T14:42:29.907Z,4.03
2023-03-12T14:46:32.820Z,3.43
2023-03-12T14:50:37.935Z,3.70
2023-03-12T14:54:39.719Z,4.13
2023-03-12T14:58:46.397Z,3.47
2023-03-12T15:02:50.960Z,3.50
2023-03-12T15:06:55.208Z,4.10
2023-03-12T15:10:59.749Z,3.43
2023-03-12T15:15:05.667Z,4.20
2023-03-12T15:19:13.006Z,3.40
2023-03-12T15:23:15.900Z,3.20
2023-03-12T15:27:35.258Z,3.23
2023-03-12T15:31:44.385Z,3.73
2023-03-12T15:36:02.830Z,4.10
2023-03-12T15:40:07.569Z,4.03
2023-03-12T15:44:19.203Z,4.47
2023-03-12T15:48:26.638Z,4.50
2023-03-12T15:52:32.952Z,3.67
2023-03-12T15:56:35.809Z,4.53
2023-03-12T16:00:43.029Z,4.27
2023-03-12T16:04:44.624Z,4.33
2023-03-12T16:08:52.426Z,3.90
2023-03-12T16:13:01.158Z,3.80
2023-03-12T16:17:02.867Z,3.93
2023-03-12T16:21:04.791Z,4.10
2023-03-12T16:25:10.106Z,4.50
2023-03-12T16:29:15.822Z,4.53
2023-03-12T16:33:18.914Z,4.03
2023-03-12T16:37:20.354Z,4.33
2023-03-12T16:41:23.258Z,4.10
2023-03-12T16:45:24.704Z,4.43
2023-03-12T16:49:26.204Z,4.60
2023-03-12T16:53:28.051Z,4.30
2023-03-12T16:57:34.208Z,4.40
2023-03-12T17:01:35.950Z,4.40
2023-03-12T17:05:37.497Z,3.80
2023-03-12T17:09:38.966Z,3.90
2023-03-12T17:13:42.352Z,4.33
2023-03-12T17:17:43.768Z,4.27
2023-03-12T17:21:45.968Z,3.83
2023-03-12T17:25:47.392Z,4.47
2023-03-12T17:29:50.442Z,4.03
2023-03-12T17:33:52.113Z,4.07
2023-03-12T17:37:53.590Z,4.23
2023-03-12T17:41:55.605Z,4.17
2023-03-12T17:46:03.345Z,4.20
2023-03-12T17:50:06.666Z,3.67
2023-03-12T17:54:08.097Z,4.17
2023-03-12T17:58:09.556Z,4.33
2023-03-12T18:02:13.310Z,4.27
2023-03-12T18:06:14.729Z,4.43
2023-03-12T18:10:17.187Z,4.03
2023-03-12T18:14:18.756Z,4.23
2023-03-12T18:18:22.495Z,4.07
2023-03-12T18:22:24.047Z,4.70
2023-03-12T18:26:25.627Z,4.30
2023-03-12T18:30:27.279Z,4.50
2023-03-12T18:34:30.041Z,4.80
2023-03-12T18:38:33.584Z,4.07
2023-03-12T18:42:35.034Z,3.80
2023-03-12T18:46:36.520Z,4.50
2023-03-12T18:50:39.384Z,4.30
2023-03-12T18:54:41.065Z,4.67
2023-03-12T18:58:42.526Z,3.83
2023-03-12T19:02:47.545Z,4.10
2023-03-12T19:06:52.024Z,3.37
2023-03-12T19:10:53.549Z,3.93
2023-03-12T19:15:03.141Z,3.73
2023-03-12T19:19:04.875Z,4.10
2023-03-12T19:23:07.876Z,4.10
2023-03-12T19:27:09.424Z,4.07
2023-03-12T19:31:12.266Z,4.87
2023-03-12T19:35:14.878Z,4.07
2023-03-12T19:39:21.612Z,4.07
2023-03-12T19:43:24.238Z,4.10
2023-03-12T19:47:28.105Z,4.07
2023-03-12T19:51:29.960Z,4.03
2023-03-12T19:55:33.668Z,3.50
2023-03-12T19:59:38.069Z,4.17
2023-03-12T20:03:42.281Z,4.23
2023-03-12T20:07:44.907Z,4.50
2023-03-12T20:11:49.140Z,4.07
2023-03-12T20:15:50.628Z,3.90
2023-03-12T20:19:52.258Z,4.40
2023-03-12T20:23:55.157Z,4.17
2023-03-12T20:27:58.569Z,4.23
2023-03-12T20:32:00.222Z,3.70
2023-03-12T20:36:05.147Z,4.00
2023-03-12T20:40:08.184Z,3.67
2023-03-12T20:44:11.585Z,3.67
2023-03-12T20:48:15.173Z,4.23
2023-03-12T20:52:17.857Z,3.63
2023-03-12T20:56:20.342Z,3.70
2023-03-12T21:00:25.248Z,4.10
2023-03-12T21:04:26.963Z,4.23
2023-03-12T21:08:29.254Z,3.60
2023-03-12T21:12:30.694Z,4.33
2023-03-12T21:16:33.565Z,4.37
2023-03-12T21:20:36.917Z,3.67
2023-03-12T21:24:38.362Z,3.97
2023-03-12T21:28:39.980Z,3.60
2023-03-12T21:32:42.923Z,4.30
2023-03-12T21:36:44.443Z,3.60
2023-03-12T21:40:46.519Z,3.83
2023-03-12T21:44:51.867Z,4.07
2023-03-12T21:48:54.710Z,4.33
2023-03-12T21:52:57.786Z,4.10
2023-03-12T21:57:02.476Z,4.10
2023-03-12T22:01:07.088Z,3.53
2023-03-12T22:05:14.032Z,3.63
2023-03-12T22:09:15.657Z,3.60
2023-03-12T22:13:17.197Z,3.40
2023-03-12T22:17:18.655Z,3.90
2023-03-12T22:21:23.542Z,3.57
2023-03-12T22:25:25.491Z,3.87
2023-03-12T22:29:26.933Z,3.10
2023-03-12T22:33:29.399Z,3.30
2023-03-12T22:37:32.690Z,3.30
2023-03-12T22:41:34.530Z,3.20
2023-03-12T22:45:36.541Z,3.33
2023-03-12T22:49:37.947Z,3.43
2023-03-12T22:53:42.426Z,3.40
2023-03-12T22:57:44.080Z,3.20
2023-03-12T23:01:46.234Z,3.50
2023-03-12T23:05:47.736Z,3.90
2023-03-12T23:09:50.946Z,3.70
2023-03-12T23:13:53.392Z,3.37
2023-03-12T23:17:54.850Z,3.30
2023-03-12T23:21:56.301Z,3.40
2023-03-12T23:26:00.431Z,3.40
2023-03-12T23:30:02.111Z,3.90
2023-03-12T23:34:04.315Z,3.50
2023-03-12T23:38:06.458Z,3.90
2023-03-12T23:42:09.341Z,3.70
2023-03-12T23:46:11.906Z,3.27
2023-03-12T23:50:16.641Z,3.53
2023-03-12T23:54:18.120Z,3.87
2023-03-12T23:58:20.909Z,3.37
